Time;durP1;ratioP1;P1;durP2;ratioP2;P2;SDS_P1;SDS_P2;PMS_P1;PMS_P2;Temp;Humidity;BMP_temperature;BMP_pressure;BME280_temperature;BME280_humidity;BME280_pressure;Samples;Min_cycle;Max_cycle;Signal;HPM_P1;HPM_P2
2022/07/17 00:01:24;;;;;;;3.47;1.27;;;14.70;99.90;;;-141.84;49.75;20161.38;5032462;28;20222;-62
2022/07/17 00:03:53;;;;;;;3.97;1.50;;;14.70;99.90;;;-141.84;49.68;20202.03;5032556;28;20244;-62
2022/07/17 00:06:22;;;;;;;3.57;1.00;;;14.70;99.90;;;-141.84;49.07;20236.59;5032320;28;20228;-63
2022/07/17 00:08:50;;;;;;;4.47;1.03;;;14.80;99.90;;;-141.84;48.82;20250.81;5032736;28;20222;-61
2022/07/17 00:11:19;;;;;;;3.57;1.30;;;14.80;99.90;;;-141.84;48.95;20232.53;5032459;28;20843;-62
2022/07/17 00:13:48;;;;;;;4.67;1.73;;;14.90;99.90;;;-141.84;49.14;20252.84;5032373;28;20260;-63
2022/07/17 00:16:17;;;;;;;4.73;1.30;;;14.80;99.90;;;-141.84;49.40;20212.19;5032421;28;20299;-61
2022/07/17 00:18:45;;;;;;;1.73;1.20;;;14.80;99.90;;;-141.84;49.67;20169.53;5032179;28;20308;-62
2022/07/17 00:21:13;;;;;;;3.50;1.37;;;14.70;99.90;;;-141.84;49.22;20218.31;5031920;28;20302;-62
2022/07/17 00:23:41;;;;;;;3.63;1.30;;;14.70;99.90;;;-141.84;49.66;20171.56;5032290;28;20674;-62
2022/07/17 00:26:10;;;;;;;1.90;1.17;;;14.70;99.90;;;-141.84;50.42;20167.47;5032917;28;20290;-63
2022/07/17 00:28:38;;;;;;;3.17;1.50;;;14.50;99.90;;;-141.84;50.48;20159.34;5031898;28;20639;-62
2022/07/17 00:31:09;;;;;;;3.13;1.50;;;14.40;99.90;;;-141.84;50.24;20165.44;5031848;28;20225;-62
2022/07/17 00:33:37;;;;;;;5.33;1.20;;;14.40;99.90;;;-141.84;50.41;20159.34;5032209;28;20317;-63
2022/07/17 00:36:06;;;;;;;4.47;1.20;;;14.30;99.90;;;-141.84;50.68;20134.97;5031874;28;20254;-63
2022/07/17 00:38:34;;;;;;;3.90;1.30;;;14.20;99.90;;;-141.84;51.55;20108.53;5031845;28;20667;-63
2022/07/17 00:41:02;;;;;;;4.70;1.30;;;14.20;99.90;;;-141.84;51.48;20118.69;5032520;28;20285;-63
2022/07/17 00:43:30;;;;;;;3.83;1.27;;;14.10;99.90;;;-141.84;51.60;20098.38;5032099;28;20230;-62
2022/07/17 00:46:03;;;;;;;3.07;1.30;;;14.00;99.90;;;-141.84;51.42;20082.13;5031711;28;20654;-61
2022/07/17 00:48:33;;;;;;;3.07;1.40;;;14.00;99.90;;;-141.84;51.83;20096.34;5031928;28;20217;-63
2022/07/17 00:51:01;;;;;;;3.90;1.47;;;13.90;99.90;;;-141.84;52.20;20078.06;5031270;28;20238;-62
2022/07/17 00:53:34;;;;;;;3.90;1.20;;;13.90;99.90;;;-141.84;52.39;20039.44;5031762;28;20210;-62
2022/07/17 00:56:06;;;;;;;2.33;1.20;;;13.80;99.90;;;-141.84;52.74;20041.47;5031518;28;20201;-62
2022/07/17 00:58:37;;;;;;;2.97;1.27;;;13.70;99.90;;;-141.84;52.63;20045.53;5031499;28;20405;-62
2022/07/17 01:01:06;;;;;;;2.70;1.07;;;13.70;99.90;;;-141.84;52.66;20082.13;5031569;28;20222;-64
2022/07/17 01:03:36;;;;;;;3.27;1.40;;;13.70;99.90;;;-141.84;52.56;20057.72;5031486;28;20284;-62
2022/07/17 01:06:05;;;;;;;3.00;1.03;;;13.70;99.90;;;-141.84;52.90;20037.41;5031648;28;20651;-61
2022/07/17 01:08:35;;;;;;;2.60;0.90;;;13.70;99.90;;;-141.84;52.93;20049.59;5031455;28;20212;-62
2022/07/17 01:11:04;;;;;;;2.83;1.43;;;13.60;99.90;;;-141.84;53.12;20041.47;5031875;28;20321;-61
2022/07/17 01:13:33;;;;;;;2.67;1.20;;;13.60;99.90;;;-141.84;53.34;20037.41;5030996;28;20318;-62
2022/07/17 01:16:01;;;;;;;2.53;1.20;;;13.60;99.90;;;-141.84;53.42;20000.81;5031233;28;20230;-62
2022/07/17 01:18:30;;;;;;;2.10;1.10;;;13.50;99.90;;;-141.84;53.89;20015.03;5031030;28;20743;-63
2022/07/17 01:21:05;;;;;;;4.30;1.33;;;13.50;99.90;;;-141.84;54.15;20004.88;5031071;28;20648;-62
2022/07/17 01:23:33;;;;;;;4.97;1.30;;;13.40;99.90;;;-141.84;54.20;19972.38;5030876;28;20190;-63
2022/07/17 01:26:02;;;;;;;6.43;1.40;;;13.40;99.90;;;-141.84;54.46;20021.16;5031807;28;20469;-62
2022/07/17 01:28:30;;;;;;;3.17;1.30;;;13.40;99.90;;;-141.84;54.92;19980.50;5030979;28;20666;-63
2022/07/17 01:31:02;;;;;;;2.77;1.17;;;13.30;99.90;;;-141.84;54.32;20004.88;5031087;28;20230;-62
2022/07/17 01:33:31;;;;;;;4.57;1.27;;;13.40;99.90;;;-141.84;54.34;20002.84;5030859;28;20599;-62
2022/07/17 01:35:59;;;;;;;3.33;1.10;;;13.30;99.90;;;-141.84;54.39;20035.38;5030829;28;20230;-63
2022/07/17 01:38:29;;;;;;;2.73;1.40;;;13.30;99.90;;;-141.84;54.53;20017.09;5030743;28;20202;-62
2022/07/17 01:40:57;;;;;;;4.37;1.47;;;13.30;99.90;;;-141.84;54.46;19996.75;5031339;28;20634;-63
2022/07/17 01:43:25;;;;;;;3.27;1.40;;;13.30;99.90;;;-141.84;55.03;20021.16;5030516;28;20280;-61
2022/07/17 01:45:53;;;;;;;3.63;1.33;;;13.30;99.90;;;-141.84;54.93;19960.16;5030590;28;20308;-62
2022/07/17 01:48:27;;;;;;;4.30;1.23;;;13.20;99.90;;;-141.84;55.24;20010.97;5030826;28;20352;-62
2022/07/17 01:50:55;;;;;;;2.63;1.40;;;13.20;99.90;;;-141.84;55.58;19958.13;5019291;28;20350;-62
2022/07/17 01:53:24;;;;;;;4.67;1.30;;;13.20;99.90;;;-141.84;56.18;19935.78;5011032;28;20203;-63
2022/07/17 01:55:53;;;;;;;3.70;1.40;;;13.10;99.90;;;-141.84;57.00;19929.69;5011228;28;20313;-62
2022/07/17 01:58:22;;;;;;;3.53;1.30;;;13.00;99.90;;;-141.84;57.54;19929.69;5010782;28;20794;-61
2022/07/17 02:00:50;;;;;;;4.53;1.40;;;13.00;99.90;;;-141.84;56.46;19943.91;5010820;28;20317;-63
2022/07/17 02:03:19;;;;;;;4.27;1.50;;;13.00;99.90;;;-141.84;55.97;19984.56;5010784;28;20658;-61
2022/07/17 02:05:47;;;;;;;2.67;1.37;;;13.00;99.90;;;-141.84;56.44;19956.09;5010196;28;20223;-62
2022/07/17 02:08:16;;;;;;;3.40;1.50;;;13.00;99.90;;;-141.84;56.54;19968.31;5010946;28;20259;-63
2022/07/17 02:10:45;;;;;;;5.53;1.20;;;13.00;99.90;;;-141.84;56.57;19994.72;5010635;28;20273;-62
2022/07/17 02:13:14;;;;;;;1.83;1.60;;;12.90;99.90;;;-141.84;56.53;19935.78;5010713;28;20250;-64
2022/07/17 02:15:43;;;;;;;4.30;1.33;;;12.90;99.90;;;-141.84;56.94;19925.63;5010420;28;20271;-62
2022/07/17 02:18:11;;;;;;;3.73;1.33;;;13.10;99.90;;;-141.84;57.08;19939.84;5010628;28;20291;-62
2022/07/17 02:20:41;;;;;;;3.83;1.50;;;12.90;99.90;;;-141.84;56.88;19927.66;5028339;28;20305;-62
2022/07/17 02:23:10;;;;;;;4.47;1.50;;;12.80;99.90;;;-141.84;57.61;19927.66;5031047;28;20198;-62
2022/07/17 02:25:38;;;;;;;2.90;1.30;;;12.80;99.90;;;-141.84;57.78;19880.91;5030287;28;20308;-62
2022/07/17 02:28:06;;;;;;;2.80;1.27;;;12.70;99.90;;;-141.84;57.74;19925.63;5030125;28;20259;-61
2022/07/17 02:30:36;;;;;;;4.53;1.60;;;12.70;99.90;;;-141.84;58.22;19884.97;5030099;28;20578;-62
2022/07/17 02:33:04;;;;;;;3.07;1.70;;;12.60;99.90;;;-141.84;58.63;19913.44;5030256;28;20250;-62
2022/07/17 02:35:33;;;;;;;3.60;1.60;;;12.60;99.90;;;-141.84;59.29;19897.16;5030082;28;20260;-62
2022/07/17 02:38:01;;;;;;;3.87;1.40;;;12.60;99.90;;;-141.84;59.53;19874.81;5030689;28;20240;-63
2022/07/17 02:40:30;;;;;;;4.17;1.90;;;12.50;99.90;;;-141.84;59.58;19870.75;5030140;28;20720;-62
2022/07/17 02:42:58;;;;;;;4.00;1.40;;;12.50;99.90;;;-141.84;60.49;19854.50;5029971;28;20230;-62
2022/07/17 02:45:26;;;;;;;3.57;1.70;;;12.40;99.90;;;-141.84;60.63;19838.22;5030084;28;20313;-61
2022/07/17 02:47:56;;;;;;;3.47;1.53;;;12.40;99.90;;;-141.84;60.98;19813.84;5030444;28;20224;-62
2022/07/17 02:50:24;;;;;;;4.50;1.50;;;12.30;99.90;;;-141.84;60.96;19813.84;5030025;28;20212;-62
2022/07/17 02:52:53;;;;;;;3.10;1.60;;;12.20;99.90;;;-141.84;61.31;19832.13;5030374;28;20229;-62
2022/07/17 02:55:22;;;;;;;3.17;1.50;;;12.20;99.90;;;-141.84;61.41;19801.66;5029972;28;20305;-61
2022/07/17 02:57:50;;;;;;;5.00;1.93;;;12.20;99.90;;;-141.84;60.79;19852.44;5030119;28;20256;-63
2022/07/17 03:00:20;;;;;;;4.33;1.83;;;12.30;99.90;;;-141.84;60.25;19834.16;5029693;28;20241;-61
2022/07/17 03:02:48;;;;;;;5.53;1.93;;;12.40;99.90;;;-141.84;60.42;19891.06;5030006;28;20813;-62
2022/07/17 03:05:18;;;;;;;4.37;2.00;;;12.40;99.90;;;-141.84;60.38;19864.66;5030426;28;20248;-62
2022/07/17 03:07:47;;;;;;;4.47;1.90;;;12.40;99.90;;;-141.84;60.73;19856.53;5029879;28;20268;-63
2022/07/17 03:10:16;;;;;;;3.63;1.80;;;12.40;99.90;;;-141.84;61.26;19821.97;5029902;28;20261;-63
2022/07/17 03:12:44;;;;;;;4.87;1.80;;;12.30;99.90;;;-141.84;61.72;19848.38;5029824;28;20242;-61
2022/07/17 03:15:13;;;;;;;4.10;1.70;;;12.30;99.90;;;-141.84;61.77;19801.66;5029770;28;20224;-64
2022/07/17 03:17:42;;;;;;;4.07;1.97;;;12.20;99.90;;;-141.84;61.01;19852.44;5030063;28;20237;-62
2022/07/17 03:20:12;;;;;;;4.40;1.90;;;12.20;99.90;;;-141.84;61.29;19826.03;5033497;28;20228;-61
2022/07/17 03:22:41;;;;;;;4.43;1.90;;;12.30;99.90;;;-141.84;61.97;19805.72;5033180;28;20605;-62
2022/07/17 03:25:10;;;;;;;3.07;1.70;;;12.20;99.90;;;-141.84;62.02;19795.53;5033188;28;20232;-61
2022/07/17 03:27:39;;;;;;;7.03;2.00;;;12.20;99.90;;;-141.84;61.65;19824.00;5033218;28;20308;-62
2022/07/17 03:30:10;;;;;;;6.03;2.07;;;12.20;99.90;;;-141.84;62.25;19826.03;5032822;28;20808;-61
2022/07/17 03:32:38;;;;;;;4.17;1.77;;;12.20;99.90;;;-141.84;62.52;19787.41;5033232;28;20238;-63
2022/07/17 03:35:08;;;;;;;3.30;1.97;;;12.20;99.90;;;-141.84;62.00;19805.72;5033346;28;20225;-65
2022/07/17 03:37:38;;;;;;;4.43;1.83;;;12.20;99.90;;;-141.84;61.73;19830.09;5033100;28;20230;-62
2022/07/17 03:40:10;;;;;;;5.23;1.80;;;12.10;99.90;;;-141.84;62.01;19787.41;5032888;28;20225;-62
2022/07/17 03:42:39;;;;;;;4.07;1.80;;;12.20;99.90;;;-141.84;61.69;19828.06;5032784;28;20301;-62
2022/07/17 03:45:08;;;;;;;3.50;1.60;;;12.20;99.90;;;-141.84;61.89;19811.81;5032785;28;20222;-62
2022/07/17 03:47:37;;;;;;;4.47;2.10;;;12.20;99.90;;;-141.84;62.46;19821.97;5033116;28;20206;-63
2022/07/17 03:50:06;;;;;;;3.30;1.97;;;12.20;99.90;;;-141.84;61.49;19836.19;5033080;28;20289;-62
2022/07/17 03:52:34;;;;;;;4.33;2.30;;;12.30;99.90;;;-141.84;61.83;19809.78;5032632;28;20226;-63
2022/07/17 03:55:02;;;;;;;3.33;1.60;;;12.30;99.90;;;-141.84;61.84;19838.22;5032787;28;20603;-62
2022/07/17 03:57:32;;;;;;;4.60;1.70;;;12.30;99.90;;;-141.84;60.40;19889.03;5032681;28;20313;-63
2022/07/17 04:00:02;;;;;;;4.90;1.97;;;12.40;99.90;;;-141.84;59.01;19905.28;5032542;28;20253;-65
2022/07/17 04:02:30;;;;;;;5.23;1.60;;;12.50;99.90;;;-141.84;60.31;19838.22;5032783;28;20252;-61
2022/07/17 04:04:58;;;;;;;4.63;1.70;;;12.50;99.90;;;-141.84;60.00;19850.41;5032880;28;20198;-61
2022/07/17 04:07:30;;;;;;;4.63;1.97;;;12.50;99.90;;;-141.84;59.72;19860.59;5032433;28;20284;-61
2022/07/17 04:10:00;;;;;;;3.67;1.87;;;12.50;99.90;;;-141.84;58.35;19923.59;5032479;28;20309;-62
2022/07/17 04:12:29;;;;;;;2.20;1.97;;;12.60;99.90;;;-141.84;58.54;19901.22;5032077;28;20285;-63
2022/07/17 04:14:58;;;;;;;4.03;2.03;;;12.60;99.90;;;-141.84;59.10;19913.44;5032266;28;20313;-63
2022/07/17 04:17:27;;;;;;;5.30;2.07;;;12.60;99.90;;;-141.84;59.77;19909.34;5032485;28;20206;-62
2022/07/17 04:19:55;;;;;;;5.83;2.23;;;12.70;99.90;;;-141.84;59.10;19897.16;5032632;28;20210;-61
2022/07/17 04:22:23;;;;;;;5.50;1.73;;;12.70;99.90;;;-141.84;58.47;19915.47;5032030;28;20230;-63
2022/07/17 04:24:52;;;;;;;6.70;2.20;;;12.70;99.90;;;-141.84;58.85;19927.66;5031978;28;20662;-63
2022/07/17 04:27:20;;;;;;;2.97;1.50;;;12.80;99.90;;;-141.84;59.08;19901.22;5032047;28;20765;-62
2022/07/17 04:29:48;;;;;;;4.17;1.70;;;12.80;99.90;;;-141.84;58.67;19901.22;5031032;28;20230;-63
2022/07/17 04:32:18;;;;;;;5.07;2.33;;;12.90;99.90;;;-141.84;57.73;19939.84;5032579;28;20206;-62
2022/07/17 04:34:46;;;;;;;2.83;1.90;;;12.90;99.90;;;-141.84;57.74;19917.50;5032089;28;20226;-62
2022/07/17 04:37:14;;;;;;;5.73;1.93;;;13.00;99.90;;;-141.84;57.69;19929.69;5031774;28;20230;-62
2022/07/17 04:39:42;;;;;;;3.87;2.00;;;13.00;99.90;;;-141.84;58.18;19923.59;5031993;28;20320;-62
2022/07/17 04:42:11;;;;;;;4.73;2.00;;;13.10;99.90;;;-141.84;57.14;19972.38;5031764;28;20221;-62
2022/07/17 04:44:39;;;;;;;4.97;2.13;;;13.10;99.90;;;-141.84;57.20;19966.28;5031886;28;20244;-63
2022/07/17 04:47:07;;;;;;;3.07;1.70;;;13.20;99.90;;;-141.84;57.44;19972.38;5032304;28;20625;-62
2022/07/17 04:49:36;;;;;;;7.17;2.20;;;13.30;99.90;;;-141.84;56.89;19966.28;5031306;28;20244;-61
2022/07/17 04:52:05;;;;;;;4.07;2.07;;;13.30;99.90;;;-141.84;56.58;20008.94;5031187;28;20230;-62
2022/07/17 04:54:33;;;;;;;3.77;2.17;;;13.40;99.90;;;-141.84;56.36;20008.94;5031415;28;20226;-62
2022/07/17 04:57:01;;;;;;;3.60;2.00;;;13.60;99.90;;;-141.84;55.50;20069.94;5031233;28;20222;-61
2022/07/17 04:59:29;;;;;;;3.27;1.93;;;13.70;99.90;;;-141.84;53.14;20240.66;5031833;28;20206;-62
2022/07/17 05:01:58;;;;;;;5.25;2.15;;;14.20;99.90;;;-141.84;46.66;20576.03;5031609;28;20637;-61
2022/07/17 05:04:26;;;;;;;3.78;2.22;;;15.50;99.90;;;-141.84;41.79;20909.44;5031115;28;20257;-62
2022/07/17 05:06:57;;;;;;;4.72;2.17;;;16.80;99.90;;;-141.84;39.00;21198.13;5030935;28;20264;-62
2022/07/17 05:09:25;;;;;;;4.57;2.08;;;18.20;99.90;;;-141.84;36.64;21440.06;5030931;28;20221;-61
2022/07/17 05:11:53;;;;;;;3.20;2.05;;;19.30;99.90;;;-141.84;34.42;21684.06;5031198;28;20225;-63
2022/07/17 05:14:22;;;;;;;5.20;2.10;;;20.40;99.90;;;-141.84;33.09;21834.53;5031860;28;20693;-62
2022/07/17 05:16:51;;;;;;;4.10;1.40;;;21.00;99.90;;;-141.84;33.23;21887.41;5031319;28;20300;-61
2022/07/17 05:19:19;;;;;;;2.78;1.70;;;21.60;99.90;;;-141.84;31.59;22125.31;5030959;28;20226;-62
2022/07/17 05:21:47;;;;;;;4.43;1.90;;;22.00;99.90;;;-141.84;30.77;22188.34;5030380;28;20718;-62
2022/07/17 05:24:17;;;;;;;4.53;1.90;;;22.40;99.90;;;-141.84;31.35;22161.91;5031109;28;20224;-62
2022/07/17 05:26:45;;;;;;;4.72;1.73;;;22.20;99.90;;;-141.84;31.93;22001.28;5030936;28;20222;-62
2022/07/17 05:29:13;;;;;;;3.92;1.95;;;21.90;99.90;;;-141.84;31.88;21974.84;5031770;28;20404;-61
2022/07/17 05:31:41;;;;;;;3.40;1.63;;;21.70;99.90;;;-141.84;32.63;21938.22;5030423;28;20243;-62
2022/07/17 05:34:09;;;;;;;4.05;1.50;;;21.50;99.90;;;-141.84;31.73;21991.09;5031323;28;20236;-60
2022/07/17 05:36:37;;;;;;;3.47;1.70;;;21.50;99.90;;;-141.84;32.84;21793.84;5030795;28;20591;-62
2022/07/17 05:39:05;;;;;;;5.13;1.75;;;21.10;99.90;;;-141.84;33.72;21686.09;5030756;28;20313;-63
2022/07/17 05:41:35;;;;;;;4.68;1.50;;;20.60;99.90;;;-141.84;35.53;21399.41;5030448;28;20233;-62
2022/07/17 05:44:04;;;;;;;3.78;1.85;;;20.20;99.90;;;-141.84;37.07;21263.19;5031181;28;20296;-64
2022/07/17 05:46:32;;;;;;;4.47;1.60;;;19.70;99.90;;;-141.84;38.54;21076.13;5030293;28;20232;-62
2022/07/17 05:49:01;;;;;;;3.95;1.70;;;19.30;99.90;;;-141.84;39.83;20954.16;5030699;28;20276;-62
2022/07/17 05:51:29;;;;;;;3.72;1.35;;;18.80;99.90;;;-141.84;41.03;20872.84;5030335;28;20236;-63
2022/07/17 05:53:57;;;;;;;4.00;1.70;;;18.60;99.90;;;-141.84;41.82;20822.03;5030267;28;20236;-61
2022/07/17 05:56:25;;;;;;;4.90;1.60;;;18.40;99.90;;;-141.84;42.69;20781.38;5030640;28;20241;-62
2022/07/17 05:58:55;;;;;;;5.88;1.48;;;18.20;99.90;;;-141.84;43.03;20791.53;5031003;28;20226;-62
2022/07/17 06:01:23;;;;;;;3.72;1.30;;;18.20;99.90;;;-141.84;42.27;20803.72;5030182;28;20304;-61
2022/07/17 06:03:51;;;;;;;6.20;1.30;;;18.30;99.90;;;-141.84;42.85;20742.75;5030469;28;20309;-62
2022/07/17 06:06:20;;;;;;;3.60;1.40;;;18.30;99.90;;;-141.84;43.03;20732.56;5029830;28;20229;-61
2022/07/17 06:08:49;;;;;;;4.35;1.50;;;18.10;99.90;;;-141.84;43.30;20736.63;5030376;28;20296;-62
2022/07/17 06:11:17;;;;;;;6.85;1.55;;;18.10;99.90;;;-141.84;43.61;20750.88;5030717;28;20202;-61
2022/07/17 06:13:53;;;;;;;3.30;1.50;;;18.20;99.90;;;-141.84;43.23;20744.78;5030628;28;20256;-62
2022/07/17 06:16:21;;;;;;;4.63;1.52;;;18.20;99.90;;;-141.84;42.96;20750.88;5030114;28;20309;-61
2022/07/17 06:18:50;;;;;;;4.07;1.30;;;18.30;99.90;;;-141.84;42.98;20763.06;5030154;28;20229;-62
2022/07/17 06:21:20;;;;;;;3.95;1.30;;;18.30;99.90;;;-141.84;42.83;20793.56;5029906;28;20241;-62
2022/07/17 06:23:48;;;;;;;2.22;1.20;;;18.30;99.90;;;-141.84;43.06;20736.63;5030265;28;20222;-61
2022/07/17 06:26:16;;;;;;;3.30;1.40;;;18.30;99.90;;;-141.84;43.70;20734.59;5030815;28;20208;-62
2022/07/17 06:28:45;;;;;;;3.40;1.42;;;18.40;99.90;;;-141.84;43.31;20777.28;5030010;28;20233;-62
2022/07/17 06:31:15;;;;;;;3.15;1.52;;;18.40;99.90;;;-141.84;43.32;20801.69;5030189;28;20229;-63
2022/07/17 06:33:43;;;;;;;3.58;1.38;;;18.50;99.90;;;-141.84;42.44;20828.13;5030226;28;20234;-62
2022/07/17 06:36:11;;;;;;;2.60;1.33;;;18.50;99.90;;;-141.84;42.63;20803.72;5030269;28;20246;-62
2022/07/17 06:38:39;;;;;;;2.92;1.40;;;18.50;99.90;;;-141.84;43.50;20736.63;5030273;28;20297;-62
2022/07/17 06:41:07;;;;;;;5.32;1.45;;;18.50;99.90;;;-141.84;43.17;20793.56;5030859;28;20572;-62
2022/07/17 06:43:36;;;;;;;4.55;1.42;;;18.60;99.90;;;-141.84;42.82;20817.94;5029978;28;20300;-62
2022/07/17 06:46:04;;;;;;;3.97;1.55;;;18.70;99.90;;;-141.84;42.42;20854.53;5030064;28;20538;-63
2022/07/17 06:48:33;;;;;;;5.90;1.50;;;18.70;99.90;;;-141.84;42.63;20846.41;5029959;28;20308;-62
2022/07/17 06:51:02;;;;;;;7.18;1.48;;;18.70;99.90;;;-141.84;42.79;20842.34;5029961;28;20332;-63
2022/07/17 06:53:30;;;;;;;3.53;1.58;;;18.80;99.90;;;-141.84;42.66;20840.31;5032262;28;20206;-63
2022/07/17 06:55:58;;;;;;;4.95;1.17;;;19.00;99.90;;;-141.84;41.77;20907.41;5034549;28;20202;-62
2022/07/17 06:58:26;;;;;;;3.63;1.50;;;19.00;99.90;;;-141.84;41.31;20919.59;5033774;28;20682;-61
2022/07/17 07:00:54;;;;;;;2.78;1.40;;;19.20;99.90;;;-141.84;41.17;20903.34;5033834;28;20309;-61
2022/07/17 07:03:22;;;;;;;5.70;1.25;;;19.10;99.90;;;-141.84;41.75;20862.69;5033457;28;20543;-61
2022/07/17 07:05:52;;;;;;;4.03;1.50;;;19.10;99.90;;;-141.84;41.78;20840.31;5033509;28;20238;-63
2022/07/17 07:08:20;;;;;;;3.17;1.30;;;19.00;99.90;;;-141.84;41.49;20880.97;5034367;28;20292;-62
2022/07/17 07:10:48;;;;;;;3.70;1.17;;;18.90;99.90;;;-141.84;41.60;20844.38;5033584;28;20668;-61
2022/07/17 07:13:16;;;;;;;4.15;1.23;;;18.80;99.90;;;-141.84;41.49;20826.09;5033523;28;20319;-62
2022/07/17 07:15:44;;;;;;;4.18;1.33;;;18.70;99.90;;;-141.84;41.94;20797.63;5033409;28;20564;-62
2022/07/17 07:18:13;;;;;;;5.55;1.30;;;18.70;99.90;;;-141.84;42.11;20773.22;5033580;28;20228;-61
2022/07/17 07:20:41;;;;;;;5.55;1.48;;;18.40;99.90;;;-141.84;43.21;20769.16;5033012;28;20217;-62
2022/07/17 07:23:11;;;;;;;2.25;1.10;;;18.50;99.90;;;-141.84;42.62;20761.03;5033951;28;20308;-62
2022/07/17 07:25:39;;;;;;;4.57;1.35;;;18.50;99.90;;;-141.84;41.96;20838.28;5033315;28;20222;-63
2022/07/17 07:28:07;;;;;;;4.40;1.20;;;18.50;99.90;;;-141.84;43.03;20797.63;5033816;28;20305;-62
2022/07/17 07:30:35;;;;;;;4.75;1.17;;;18.50;99.90;;;-141.84;42.68;20803.72;5033035;28;20252;-62
2022/07/17 07:33:04;;;;;;;2.55;1.13;;;18.50;99.90;;;-141.84;42.77;20850.47;5033987;28;20599;-62
2022/07/17 07:35:32;;;;;;;3.53;1.50;;;18.60;99.90;;;-141.84;42.51;20813.88;5033687;28;20309;-62
2022/07/17 07:38:00;;;;;;;3.45;1.48;;;18.70;99.90;;;-141.84;42.92;20781.38;5033681;28;20212;-62
2022/07/17 07:40:30;;;;;;;3.38;1.33;;;18.70;99.90;;;-141.84;42.32;20801.69;5033437;28;20229;-63
2022/07/17 07:42:59;;;;;;;4.97;1.40;;;18.60;99.90;;;-141.84;42.30;20791.53;5033550;28;20230;-62
2022/07/17 07:45:27;;;;;;;4.30;1.25;;;18.60;99.90;;;-141.84;42.87;20817.94;5033375;28;20607;-62
2022/07/17 07:47:55;;;;;;;2.17;1.15;;;18.50;99.90;;;-141.84;42.80;20763.06;5034008;28;20309;-63
2022/07/17 07:50:25;;;;;;;3.53;1.30;;;18.50;99.90;;;-141.84;43.37;20742.75;5033570;28;20297;-63
2022/07/17 07:52:54;;;;;;;4.65;1.17;;;18.60;99.90;;;-141.84;42.43;20820.00;5033046;28;20559;-61
2022/07/17 07:55:22;;;;;;;3.30;1.40;;;18.60;99.90;;;-141.84;42.74;20793.56;5031453;28;20313;-63
2022/07/17 07:58:02;;;;;;;2.85;1.40;;;18.60;99.90;;;-141.84;43.19;20817.94;5032320;28;20480;-63
2022/07/17 08:00:30;;;;;;;4.20;1.70;;;18.60;99.90;;;-141.84;43.16;20777.28;5032236;28;20597;-62
2022/07/17 08:02:59;;;;;;;2.83;1.30;;;18.60;99.90;;;-141.84;43.28;20779.31;5032486;28;20249;-62
2022/07/17 08:05:27;;;;;;;3.15;1.42;;;18.70;99.90;;;-141.84;42.66;20809.81;5032579;28;20204;-64
2022/07/17 08:07:56;;;;;;;5.72;1.40;;;18.60;99.90;;;-141.84;43.33;20824.06;5033058;28;20615;-62
2022/07/17 08:10:24;;;;;;;4.10;1.40;;;18.70;99.90;;;-141.84;43.26;20771.19;5032234;28;20241;-62
2022/07/17 08:12:53;;;;;;;6.22;1.25;;;18.80;99.90;;;-141.84;42.18;20822.03;5032374;28;20667;-63
2022/07/17 08:15:23;;;;;;;4.82;1.02;;;18.80;99.90;;;-141.84;43.06;20828.13;5032018;28;20329;-62
2022/07/17 08:17:54;;;;;;;6.13;1.02;;;18.80;99.90;;;-141.84;43.01;20809.81;5032689;28;20241;-62
2022/07/17 08:20:23;;;;;;;2.90;1.27;;;18.90;99.90;;;-141.84;42.52;20807.78;5032369;28;20241;-62
2022/07/17 08:22:52;;;;;;;3.83;1.33;;;18.90;99.90;;;-141.84;42.80;20838.28;5029286;28;20696;-62
2022/07/17 08:25:36;;;;;;;4.13;1.20;;;18.90;99.90;;;-141.84;42.36;20830.16;5028467;28;20233;-62
2022/07/17 08:28:06;;;;;;;2.63;1.08;;;18.90;99.90;;;-141.84;42.83;20820.00;5030824;28;20241;-63
2022/07/17 08:30:36;;;;;;;5.10;1.38;;;18.90;99.90;;;-141.84;42.44;20850.47;5031481;28;20213;-62
2022/07/17 08:33:05;;;;;;;5.95;1.35;;;18.90;99.90;;;-141.84;42.79;20797.63;5031804;28;20222;-62
2022/07/17 08:35:33;;;;;;;3.53;1.30;;;18.90;99.90;;;-141.84;42.42;20797.63;5031573;28;20218;-62
2022/07/17 08:38:02;;;;;;;2.60;1.30;;;18.90;99.90;;;-141.84;42.65;20805.75;5032329;28;20605;-61
2022/07/17 08:40:34;;;;;;;3.92;1.13;;;18.90;99.90;;;-141.84;41.78;20850.47;5028805;28;20221;-62
2022/07/17 08:43:07;;;;;;;2.95;1.30;;;18.80;99.90;;;-141.84;41.43;20817.94;5022351;28;20222;-61
2022/07/17 08:45:41;;;;;;;4.05;1.27;;;18.80;99.90;;;-141.84;41.79;20807.78;5031203;28;20585;-60
2022/07/17 08:48:17;;;;;;;4.07;1.13;;;18.80;99.90;;;-141.84;41.82;20826.09;5028726;28;20732;-63
2022/07/17 08:50:47;;;;;;;3.17;1.30;;;18.80;99.90;;;-141.84;41.63;20858.59;5029308;28;20271;-62
2022/07/17 08:53:16;;;;;;;3.20;1.60;;;18.90;99.90;;;-141.84;41.27;20893.16;5029868;28;20204;-63
2022/07/17 08:55:44;;;;;;;4.15;1.50;;;19.10;99.90;;;-141.84;41.25;20927.72;5027263;28;20312;-62
2022/07/17 08:58:17;;;;;;;5.35;1.40;;;19.40;99.90;;;-141.84;40.83;20994.81;5031823;28;20800;-63
2022/07/17 09:00:45;;;;;;;3.13;1.30;;;19.50;99.90;;;-141.84;40.55;20994.81;5031716;28;20222;-62
2022/07/17 09:03:17;;;;;;;5.00;1.23;;;19.50;99.90;;;-141.84;40.85;20974.50;5032052;28;20308;-62
2022/07/17 09:05:46;;;;;;;4.50;1.30;;;19.60;99.90;;;-141.84;41.23;20915.53;5031932;28;20222;-61
2022/07/17 09:08:20;;;;;;;6.00;1.38;;;19.50;99.90;;;-141.84;40.90;20952.13;5032908;28;20202;-61
2022/07/17 09:10:52;;;;;;;2.40;1.10;;;19.50;99.90;;;-141.84;41.00;20907.41;5031684;28;20720;-62
2022/07/17 09:13:25;;;;;;;2.47;1.30;;;19.50;99.90;;;-141.84;40.81;20939.94;5031669;28;20284;-62
2022/07/17 09:15:59;;;;;;;4.05;1.40;;;19.60;99.90;;;-141.84;40.97;20919.59;5031152;28;20637;-62
2022/07/17 09:18:28;;;;;;;2.63;1.25;;;19.50;99.90;;;-141.84;40.65;20974.50;5031615;28;20646;-61
2022/07/17 09:20:59;;;;;;;3.13;1.30;;;19.50;99.90;;;-141.84;40.09;20956.19;5030575;28;20334;-62
2022/07/17 09:23:28;;;;;;;3.15;1.40;;;19.40;99.90;;;-141.84;40.75;20952.13;5031690;28;20631;-62
2022/07/17 09:25:57;;;;;;;4.10;1.30;;;19.40;99.90;;;-141.84;40.26;20941.97;5031622;28;20230;-62
2022/07/17 09:28:27;;;;;;;4.63;1.50;;;19.50;99.90;;;-141.84;39.02;21037.50;5031397;28;20268;-62
2022/07/17 09:30:56;;;;;;;6.45;1.60;;;19.70;99.90;;;-141.84;38.63;21037.50;5031121;28;20655;-63
2022/07/17 09:33:28;;;;;;;5.50;1.85;;;19.80;99.90;;;-141.84;37.51;21145.25;5031505;28;20603;-62
2022/07/17 09:36:07;;;;;;;4.93;1.48;;;20.10;99.90;;;-141.84;37.58;21171.69;5031107;28;20226;-62
2022/07/17 09:38:38;;;;;;;3.35;1.30;;;20.40;99.90;;;-141.84;37.95;21273.34;5031296;28;20186;-62
2022/07/17 09:41:15;;;;;;;4.82;1.40;;;20.60;99.90;;;-141.84;37.46;21228.63;5031610;28;20272;-61
2022/07/17 09:43:50;;;;;;;2.60;1.27;;;20.50;99.90;;;-141.84;38.08;21246.91;5031383;28;20257;-63
2022/07/17 09:46:22;;;;;;;4.03;1.40;;;20.70;99.90;;;-141.84;37.97;21226.59;5030946;28;20304;-63
2022/07/17 09:48:55;;;;;;;3.13;1.38;;;20.70;99.90;;;-141.84;38.19;21177.78;5031218;28;20740;-61
2022/07/17 09:51:28;;;;;;;2.30;1.17;;;20.70;99.90;;;-141.84;38.05;21183.88;5030415;28;20309;-63
2022/07/17 09:53:59;;;;;;;3.80;1.20;;;20.60;99.90;;;-141.84;36.01;21275.38;5031179;28;20222;-62
2022/07/17 09:56:30;;;;;;;4.38;1.40;;;20.80;99.90;;;-141.84;35.80;21299.78;5030415;28;20731;-62
2022/07/17 09:59:05;;;;;;;3.58;1.35;;;20.90;99.90;;;-141.84;35.89;21309.94;5031905;28;20190;-63
2022/07/17 10:01:36;;;;;;;4.78;1.35;;;21.00;99.90;;;-141.84;35.69;21399.41;5030475;28;20231;-62
2022/07/17 10:04:04;;;;;;;6.80;1.58;;;21.30;99.90;;;-141.84;35.38;21442.09;5030896;28;20233;-62
2022/07/17 10:06:33;;;;;;;3.00;1.40;;;21.60;99.90;;;-141.84;35.10;21523.44;5030726;28;20214;-62
2022/07/17 10:09:04;;;;;;;3.55;1.27;;;21.80;99.90;;;-141.84;34.86;21474.63;5031058;28;20233;-63
2022/07/17 10:11:36;;;;;;;2.42;1.20;;;21.80;99.90;;;-141.84;35.39;21440.06;5030429;28;20225;-63
2022/07/17 10:14:18;;;;;;;3.15;1.20;;;21.80;99.90;;;-141.84;35.36;21444.13;5031333;28;20186;-65